• Join FlightAware (Why Join?)
  • Login
  • US Flag 
12:41PM EST


 

Airport Tracker/Info


-or-


 

Live Flight TrackerFlight Track Log ✈ N709DC ✈ 15-May-2013 ✈ KSKI - KMOX

Flight Track Log - Related Links

Times and Time Zones

All times are in EDT time to prevent confusion due to time zone crossing. See the N709DC flight status page for this flight to view local times or setup timezone preferences in your user account.

Time Position Orientation Groundspeed Altitude Reporting Facility
EDT Latitude Longitude Course Direction KTS MPH feet Rate Location/Type
02:33PM 42.6636 -95.0631 350° North 146 168 6,000  Level Minneapolis Center
02:34PM 42.7089 -95.0739 350° North 150 173 6,000  Level Minneapolis Center
02:35PM 42.6217 -95.0512 350° North  Level FlightAware Approximate
02:36PM 42.6624 -95.0614 350° North  Level FlightAware Approximate
02:36PM 42.7612 -95.0865 350° North  Level FlightAware Approximate
02:37PM 42.7031 -95.0715 350° North  Level FlightAware Approximate
02:38PM 42.7438 -95.0817 350° North  Level FlightAware Approximate
02:39PM 42.7845 -95.0919 350° North  Level FlightAware Approximate
02:43PM 43.0444 -95.1682 348° North  Level FlightAware Approximate
02:44PM 43.0848 -95.1804 348° North  Level FlightAware Approximate
02:45PM 43.1252 -95.1925 348° North  Level FlightAware Approximate
02:45PM 43.1767 -95.1961 348° North 154 177 6,000  Level Minneapolis Center
02:46PM 43.1657 -95.2045 348° North  Level FlightAware Approximate
02:46PM 43.2122 -95.2183 336° Northwest 150 173 6,000  Level Minneapolis Center
02:47PM 43.2062 -95.2160 348° North  Level FlightAware Approximate
02:47PM 43.2531 -95.2286 350° North 148 170 6,000  Level Minneapolis Center
02:48PM 43.2467 -95.2275 348° North  Level FlightAware Approximate
02:49PM 43.2872 -95.2391 348° North  Level FlightAware Approximate
02:49PM 43.2903 -95.2403 347° North 144 166 6,000  Level Minneapolis Center
02:50PM 43.3250 -95.2536 344° North 139 160 6,000  Level Minneapolis Center
02:51PM 43.3628 -95.2625 350° North 136 157 6,000  Level Minneapolis Center
02:52PM 43.4083 -95.2747 349° North 138 159 6,000  Level Minneapolis Center
02:53PM 43.4511 -95.2908 345° North 136 157 6,000  Level Minneapolis Center
02:54PM 43.4872 -95.3008 349° North 135 155 6,000  Level Minneapolis Center
02:55PM 43.5231 -95.3122 347° North 133 153 6,000  Level Minneapolis Center
02:56PM 43.5558 -95.3203 350° North 138 159 6,000  Level Minneapolis Center
02:57PM 43.6119 -95.3392 346° North 145 167 6,000  Level Minneapolis Center
02:58PM 43.6522 -95.3522 347° North 147 169 6,000  Level Minneapolis Center
02:59PM 43.6939 -95.3669 346° North 150 173 6,000  Level Minneapolis Center
03:00PM 43.7381 -95.3786 349° North 156 180 6,000  Level Minneapolis Center
03:01PM 43.7808 -95.3911 348° North 157 181 6,000  Level Minneapolis Center
03:02PM 43.8325 -95.4094 346° North 159 183 6,000  Level Minneapolis Center
03:03PM 43.8767 -95.4225 348° North 161 185 6,000  Level Minneapolis Center
03:04PM 43.9200 -95.4364 347° North 160 184 6,000  Level Minneapolis Center
03:05PM 43.9631 -95.4486 348° North 160 184 6,000  Level Minneapolis Center
03:07PM 44.0086 -95.4550 352° North  Level FlightAware Approximate
03:07PM 44.0164 -95.4650 352° North 161 185 6,000  Level Minneapolis Center
03:08PM 44.0592 -95.4786 347° North 161 185 6,000  Level Minneapolis Center
03:09PM 44.1114 -95.4953 347° North 161 185 6,000  Level Minneapolis Center
03:10PM 44.1553 -95.5092 347° North 161 185 6,000  Level Minneapolis Center
03:11PM 44.1994 -95.5236 347° North 162 186 6,000  Level Minneapolis Center
03:12PM 44.2442 -95.5386 346° North 165 190 6,000  Level Minneapolis Center
03:13PM 44.2878 -95.5522 347° North 164 189 6,000  Level Minneapolis Center
03:14PM 44.3397 -95.5686 347° North 162 186 6,000  Level Minneapolis Center
03:15PM 44.3836 -95.5828 347° North 162 186 6,000  Level Minneapolis Center
03:16PM 44.4278 -95.5981 346° North 163 188 6,000  Level Minneapolis Center
03:17PM 44.4711 -95.6114 348° North 162 186 6,000  Level Minneapolis Center
03:18PM 44.5142 -95.6253 347° North 161 185 6,000  Level Minneapolis Center
03:19PM 44.5661 -95.6422 347° North 160 184 6,000  Level Minneapolis Center
03:20PM 44.6008 -95.6531 347° North 161 185 6,000  Level Minneapolis Center
03:21PM 44.6528 -95.6706 347° North 160 184 6,000  Level Minneapolis Center
03:22PM 44.7042 -95.6875 347° North 159 183 6,000  Level Minneapolis Center
03:23PM 44.7469 -95.7017 347° North 159 183 6,000  Level Minneapolis Center
03:24PM 44.7906 -95.7153 348° North 160 184 6,000  Level Minneapolis Center
03:25PM 44.8403 -95.7322 346° North 157 181 6,000  Level Minneapolis Center
03:27PM 44.8825 -95.7453 348° North 156 180 6,100 60 Climbing Minneapolis Center